sensor_id;sensor_type;location;lat;lon;timestamp;P1;durP1;ratioP1;P2;durP2;ratioP2
20118;SDS011;10220;42.716;23.306;2023-05-19T00:01:48;8.20;;;5.53;;
20118;SDS011;10220;42.716;23.306;2023-05-19T00:04:17;18.42;;;8.93;;
20118;SDS011;10220;42.716;23.306;2023-05-19T00:06:43;4.47;;;3.35;;
20118;SDS011;10220;42.716;23.306;2023-05-19T00:09:14;6.95;;;4.28;;
20118;SDS011;10220;42.716;23.306;2023-05-19T00:11:40;13.98;;;7.03;;
20118;SDS011;10220;42.716;23.306;2023-05-19T00:14:07;7.50;;;5.18;;
20118;SDS011;10220;42.716;23.306;2023-05-19T00:16:34;6.07;;;4.13;;
20118;SDS011;10220;42.716;23.306;2023-05-19T00:19:02;4.65;;;3.08;;
20118;SDS011;10220;42.716;23.306;2023-05-19T00:21:29;12.07;;;5.22;;
20118;SDS011;10220;42.716;23.306;2023-05-19T00:23:58;6.90;;;3.75;;
20118;SDS011;10220;42.716;23.306;2023-05-19T00:26:29;6.18;;;3.90;;
20118;SDS011;10220;42.716;23.306;2023-05-19T00:28:54;6.35;;;4.25;;
20118;SDS011;10220;42.716;23.306;2023-05-19T00:31:25;5.97;;;3.17;;
20118;SDS011;10220;42.716;23.306;2023-05-19T00:33:53;6.95;;;4.57;;
20118;SDS011;10220;42.716;23.306;2023-05-19T00:36:19;14.73;;;6.78;;
20118;SDS011;10220;42.716;23.306;2023-05-19T00:38:47;12.18;;;6.47;;
20118;SDS011;10220;42.716;23.306;2023-05-19T00:41:15;7.43;;;4.00;;
20118;SDS011;10220;42.716;23.306;2023-05-19T00:43:48;6.93;;;3.70;;
20118;SDS011;10220;42.716;23.306;2023-05-19T00:46:14;8.77;;;3.78;;
20118;SDS011;10220;42.716;23.306;2023-05-19T00:48:40;5.43;;;3.78;;
20118;SDS011;10220;42.716;23.306;2023-05-19T00:51:08;8.93;;;4.07;;
20118;SDS011;10220;42.716;23.306;2023-05-19T00:53:38;8.95;;;4.90;;
20118;SDS011;10220;42.716;23.306;2023-05-19T00:56:12;8.45;;;4.32;;
20118;SDS011;10220;42.716;23.306;2023-05-19T00:58:38;10.35;;;4.95;;
20118;SDS011;10220;42.716;23.306;2023-05-19T01:01:04;5.68;;;3.67;;
20118;SDS011;10220;42.716;23.306;2023-05-19T01:03:36;14.32;;;4.05;;
20118;SDS011;10220;42.716;23.306;2023-05-19T01:06:04;7.03;;;3.80;;
20118;SDS011;10220;42.716;23.306;2023-05-19T01:08:31;8.32;;;4.70;;
20118;SDS011;10220;42.716;23.306;2023-05-19T01:10:58;6.97;;;4.00;;
20118;SDS011;10220;42.716;23.306;2023-05-19T01:13:24;8.38;;;5.25;;
20118;SDS011;10220;42.716;23.306;2023-05-19T01:15:58;5.63;;;4.07;;
20118;SDS011;10220;42.716;23.306;2023-05-19T01:18:38;7.88;;;4.18;;
20118;SDS011;10220;42.716;23.306;2023-05-19T01:24:00;4.32;;;3.38;;
20118;SDS011;10220;42.716;23.306;2023-05-19T01:32:39;5.13;;;4.10;;
20118;SDS011;10220;42.716;23.306;2023-05-19T01:35:06;6.35;;;3.95;;
20118;SDS011;10220;42.716;23.306;2023-05-19T01:37:34;9.27;;;5.00;;
20118;SDS011;10220;42.716;23.306;2023-05-19T01:40:01;8.52;;;4.50;;
20118;SDS011;10220;42.716;23.306;2023-05-19T01:42:27;6.68;;;3.55;;
20118;SDS011;10220;42.716;23.306;2023-05-19T01:44:54;7.28;;;4.35;;
20118;SDS011;10220;42.716;23.306;2023-05-19T01:47:23;7.88;;;4.10;;
20118;SDS011;10220;42.716;23.306;2023-05-19T01:49:49;8.43;;;3.80;;
20118;SDS011;10220;42.716;23.306;2023-05-19T01:52:14;5.30;;;3.60;;
20118;SDS011;10220;42.716;23.306;2023-05-19T01:54:39;5.53;;;3.58;;
20118;SDS011;10220;42.716;23.306;2023-05-19T01:57:09;7.40;;;4.18;;
20118;SDS011;10220;42.716;23.306;2023-05-19T02:05:26;7.55;;;4.28;;
20118;SDS011;10220;42.716;23.306;2023-05-19T02:08:15;7.28;;;4.55;;
20118;SDS011;10220;42.716;23.306;2023-05-19T02:10:50;9.00;;;4.13;;
20118;SDS011;10220;42.716;23.306;2023-05-19T02:13:30;8.82;;;3.85;;
20118;SDS011;10220;42.716;23.306;2023-05-19T02:16:04;5.30;;;4.03;;
20118;SDS011;10220;42.716;23.306;2023-05-19T02:18:31;8.98;;;4.70;;
20118;SDS011;10220;42.716;23.306;2023-05-19T02:20:57;8.15;;;5.07;;
20118;SDS011;10220;42.716;23.306;2023-05-19T02:23:23;8.80;;;5.05;;
20118;SDS011;10220;42.716;23.306;2023-05-19T02:25:49;9.55;;;4.70;;
20118;SDS011;10220;42.716;23.306;2023-05-19T02:28:14;6.35;;;4.97;;
20118;SDS011;10220;42.716;23.306;2023-05-19T02:30:40;6.82;;;4.03;;
20118;SDS011;10220;42.716;23.306;2023-05-19T02:33:08;7.47;;;4.40;;
20118;SDS011;10220;42.716;23.306;2023-05-19T02:35:38;7.10;;;4.22;;
20118;SDS011;10220;42.716;23.306;2023-05-19T02:38:06;10.13;;;4.30;;
20118;SDS011;10220;42.716;23.306;2023-05-19T02:40:34;9.40;;;5.55;;
20118;SDS011;10220;42.716;23.306;2023-05-19T02:43:07;7.18;;;3.80;;
20118;SDS011;10220;42.716;23.306;2023-05-19T02:45:32;6.82;;;4.47;;
20118;SDS011;10220;42.716;23.306;2023-05-19T02:47:58;8.00;;;4.68;;
20118;SDS011;10220;42.716;23.306;2023-05-19T02:50:23;7.45;;;4.97;;
20118;SDS011;10220;42.716;23.306;2023-05-19T02:52:48;7.22;;;5.25;;
20118;SDS011;10220;42.716;23.306;2023-05-19T02:55:18;6.00;;;5.40;;
20118;SDS011;10220;42.716;23.306;2023-05-19T02:57:44;10.02;;;5.38;;
20118;SDS011;10220;42.716;23.306;2023-05-19T03:00:12;10.90;;;4.28;;
20118;SDS011;10220;42.716;23.306;2023-05-19T03:02:40;6.68;;;3.75;;
20118;SDS011;10220;42.716;23.306;2023-05-19T03:05:08;5.95;;;4.75;;
20118;SDS011;10220;42.716;23.306;2023-05-19T03:07:34;7.18;;;4.15;;
20118;SDS011;10220;42.716;23.306;2023-05-19T03:10:02;9.65;;;5.43;;
20118;SDS011;10220;42.716;23.306;2023-05-19T03:12:46;8.70;;;5.28;;
20118;SDS011;10220;42.716;23.306;2023-05-19T03:15:11;10.63;;;5.00;;
20118;SDS011;10220;42.716;23.306;2023-05-19T03:17:38;5.97;;;4.15;;
20118;SDS011;10220;42.716;23.306;2023-05-19T03:20:04;12.43;;;5.93;;
20118;SDS011;10220;42.716;23.306;2023-05-19T03:22:31;10.07;;;5.13;;
20118;SDS011;10220;42.716;23.306;2023-05-19T03:24:57;15.10;;;5.88;;
20118;SDS011;10220;42.716;23.306;2023-05-19T03:27:25;8.73;;;4.72;;
20118;SDS011;10220;42.716;23.306;2023-05-19T03:29:50;8.70;;;5.68;;
20118;SDS011;10220;42.716;23.306;2023-05-19T03:32:17;10.18;;;6.03;;
20118;SDS011;10220;42.716;23.306;2023-05-19T03:34:43;12.65;;;7.25;;
20118;SDS011;10220;42.716;23.306;2023-05-19T03:37:11;10.95;;;6.45;;
20118;SDS011;10220;42.716;23.306;2023-05-19T03:39:37;7.10;;;4.45;;
20118;SDS011;10220;42.716;23.306;2023-05-19T03:42:02;9.98;;;5.32;;
20118;SDS011;10220;42.716;23.306;2023-05-19T03:44:30;9.95;;;5.32;;
20118;SDS011;10220;42.716;23.306;2023-05-19T03:46:56;10.48;;;6.43;;
20118;SDS011;10220;42.716;23.306;2023-05-19T03:49:21;9.45;;;4.35;;
20118;SDS011;10220;42.716;23.306;2023-05-19T03:51:47;13.05;;;6.38;;
20118;SDS011;10220;42.716;23.306;2023-05-19T03:54:15;7.47;;;5.07;;
20118;SDS011;10220;42.716;23.306;2023-05-19T03:56:41;10.45;;;6.25;;
20118;SDS011;10220;42.716;23.306;2023-05-19T03:59:07;7.35;;;4.82;;
20118;SDS011;10220;42.716;23.306;2023-05-19T04:01:34;9.77;;;5.32;;
20118;SDS011;10220;42.716;23.306;2023-05-19T04:04:01;8.00;;;5.10;;
20118;SDS011;10220;42.716;23.306;2023-05-19T04:06:26;9.45;;;5.22;;
20118;SDS011;10220;42.716;23.306;2023-05-19T04:08:52;6.90;;;5.45;;
20118;SDS011;10220;42.716;23.306;2023-05-19T04:11:17;11.52;;;6.50;;
20118;SDS011;10220;42.716;23.306;2023-05-19T04:13:46;10.70;;;5.53;;
20118;SDS011;10220;42.716;23.306;2023-05-19T04:16:11;10.43;;;4.50;;
20118;SDS011;10220;42.716;23.306;2023-05-19T04:18:37;9.23;;;4.65;;
20118;SDS011;10220;42.716;23.306;2023-05-19T04:21:02;9.57;;;4.50;;
20118;SDS011;10220;42.716;23.306;2023-05-19T04:23:30;9.90;;;4.78;;
20118;SDS011;10220;42.716;23.306;2023-05-19T04:25:56;7.90;;;5.25;;
20118;SDS011;10220;42.716;23.306;2023-05-19T04:28:22;11.18;;;6.18;;
20118;SDS011;10220;42.716;23.306;2023-05-19T04:30:51;7.95;;;4.90;;
20118;SDS011;10220;42.716;23.306;2023-05-19T04:33:22;6.40;;;3.78;;
20118;SDS011;10220;42.716;23.306;2023-05-19T04:35:48;8.02;;;4.90;;
20118;SDS011;10220;42.716;23.306;2023-05-19T04:38:14;7.35;;;4.15;;
20118;SDS011;10220;42.716;23.306;2023-05-19T04:40:42;10.13;;;5.13;;
20118;SDS011;10220;42.716;23.306;2023-05-19T04:43:14;7.43;;;4.50;;
20118;SDS011;10220;42.716;23.306;2023-05-19T04:45:39;11.82;;;5.75;;
20118;SDS011;10220;42.716;23.306;2023-05-19T04:48:08;8.55;;;4.50;;
20118;SDS011;10220;42.716;23.306;2023-05-19T04:50:40;9.57;;;4.72;;
20118;SDS011;10220;42.716;23.306;2023-05-19T04:53:13;11.45;;;3.97;;
20118;SDS011;10220;42.716;23.306;2023-05-19T04:55:42;8.73;;;4.68;;
20118;SDS011;10220;42.716;23.306;2023-05-19T04:58:08;10.05;;;4.93;;
20118;SDS011;10220;42.716;23.306;2023-05-19T05:00:34;8.88;;;4.75;;
20118;SDS011;10220;42.716;23.306;2023-05-19T05:03:00;8.00;;;4.47;;
20118;SDS011;10220;42.716;23.306;2023-05-19T05:05:32;13.60;;;4.88;;
20118;SDS011;10220;42.716;23.306;2023-05-19T05:08:01;6.93;;;4.93;;
20118;SDS011;10220;42.716;23.306;2023-05-19T05:10:27;11.10;;;5.35;;
20118;SDS011;10220;42.716;23.306;2023-05-19T05:12:52;9.18;;;4.78;;
20118;SDS011;10220;42.716;23.306;2023-05-19T05:15:26;5.55;;;3.97;;
20118;SDS011;10220;42.716;23.306;2023-05-19T05:17:53;6.15;;;4.38;;
20118;SDS011;10220;42.716;23.306;2023-05-19T05:20:20;7.03;;;3.83;;
20118;SDS011;10220;42.716;23.306;2023-05-19T05:22:46;10.27;;;4.82;;
20118;SDS011;10220;42.716;23.306;2023-05-19T05:25:15;9.82;;;4.38;;
20118;SDS011;10220;42.716;23.306;2023-05-19T05:27:41;7.78;;;3.85;;
20118;SDS011;10220;42.716;23.306;2023-05-19T05:30:07;6.80;;;3.83;;
20118;SDS011;10220;42.716;23.306;2023-05-19T05:32:32;7.45;;;4.28;;
20118;SDS011;10220;42.716;23.306;2023-05-19T05:34:58;6.40;;;4.35;;
20118;SDS011;10220;42.716;23.306;2023-05-19T05:37:23;7.55;;;4.63;;
20118;SDS011;10220;42.716;23.306;2023-05-19T05:39:49;9.50;;;5.25;;
20118;SDS011;10220;42.716;23.306;2023-05-19T05:42:14;6.82;;;4.25;;
20118;SDS011;10220;42.716;23.306;2023-05-19T05:44:42;6.97;;;4.47;;
20118;SDS011;10220;42.716;23.306;2023-05-19T05:47:10;6.55;;;4.40;;
20118;SDS011;10220;42.716;23.306;2023-05-19T05:49:36;8.70;;;4.18;;
20118;SDS011;10220;42.716;23.306;2023-05-19T05:52:03;7.15;;;4.70;;
20118;SDS011;10220;42.716;23.306;2023-05-19T05:54:29;7.45;;;4.47;;
20118;SDS011;10220;42.716;23.306;2023-05-19T05:56:55;10.00;;;4.25;;
20118;SDS011;10220;42.716;23.306;2023-05-19T05:59:20;8.30;;;4.38;;
20118;SDS011;10220;42.716;23.306;2023-05-19T06:01:46;6.00;;;3.95;;
20118;SDS011;10220;42.716;23.306;2023-05-19T06:04:11;8.07;;;4.32;;
20118;SDS011;10220;42.716;23.306;2023-05-19T06:06:37;4.28;;;3.00;;
20118;SDS011;10220;42.716;23.306;2023-05-19T06:09:03;8.45;;;3.80;;
20118;SDS011;10220;42.716;23.306;2023-05-19T06:11:31;7.35;;;3.53;;
20118;SDS011;10220;42.716;23.306;2023-05-19T07:01:21;8.07;;;5.03;;
20118;SDS011;10220;42.716;23.306;2023-05-19T07:03:51;9.80;;;3.65;;
20118;SDS011;10220;42.716;23.306;2023-05-19T07:06:17;5.20;;;3.22;;
20118;SDS011;10220;42.716;23.306;2023-05-19T07:08:45;7.35;;;3.95;;
20118;SDS011;10220;42.716;23.306;2023-05-19T07:11:14;4.35;;;2.80;;
20118;SDS011;10220;42.716;23.306;2023-05-19T07:13:39;9.85;;;3.03;;
20118;SDS011;10220;42.716;23.306;2023-05-19T07:16:10;5.05;;;3.67;;
20118;SDS011;10220;42.716;23.306;2023-05-19T07:18:38;4.07;;;3.22;;
20118;SDS011;10220;42.716;23.306;2023-05-19T07:21:04;7.32;;;3.00;;
20118;SDS011;10220;42.716;23.306;2023-05-19T07:23:31;5.10;;;2.65;;
20118;SDS011;10220;42.716;23.306;2023-05-19T07:29:08;4.97;;;3.50;;
20118;SDS011;10220;42.716;23.306;2023-05-19T07:31:40;4.63;;;3.00;;
20118;SDS011;10220;42.716;23.306;2023-05-19T07:34:33;12.50;;;3.35;;
20118;SDS011;10220;42.716;23.306;2023-05-19T07:36:59;7.65;;;3.83;;
20118;SDS011;10220;42.716;23.306;2023-05-19T07:42:18;7.32;;;3.60;;
20118;SDS011;10220;42.716;23.306;2023-05-19T07:44:58;5.35;;;3.85;;
20118;SDS011;10220;42.716;23.306;2023-05-19T07:47:28;4.22;;;2.65;;
20118;SDS011;10220;42.716;23.306;2023-05-19T07:53:34;7.22;;;2.92;;
20118;SDS011;10220;42.716;23.306;2023-05-19T07:56:00;6.30;;;3.20;;
20118;SDS011;10220;42.716;23.306;2023-05-19T07:58:32;6.40;;;3.28;;
20118;SDS011;10220;42.716;23.306;2023-05-19T08:00:59;5.68;;;3.53;;
20118;SDS011;10220;42.716;23.306;2023-05-19T08:03:25;5.10;;;3.10;;
20118;SDS011;10220;42.716;23.306;2023-05-19T08:05:51;4.60;;;3.58;;
20118;SDS011;10220;42.716;23.306;2023-05-19T08:28:58;6.40;;;3.45;;
20118;SDS011;10220;42.716;23.306;2023-05-19T08:38:26;9.98;;;3.17;;
20118;SDS011;10220;42.716;23.306;2023-05-19T08:44:22;6.93;;;4.57;;
20118;SDS011;10220;42.716;23.306;2023-05-19T08:46:54;9.30;;;4.10;;
20118;SDS011;10220;42.716;23.306;2023-05-19T08:49:26;6.38;;;3.13;;
20118;SDS011;10220;42.716;23.306;2023-05-19T08:55:17;9.52;;;3.88;;
20118;SDS011;10220;42.716;23.306;2023-05-19T08:57:51;4.60;;;3.35;;
20118;SDS011;10220;42.716;23.306;2023-05-19T09:00:17;11.27;;;8.38;;
20118;SDS011;10220;42.716;23.306;2023-05-19T09:02:44;11.30;;;5.95;;
20118;SDS011;10220;42.716;23.306;2023-05-19T09:05:13;5.78;;;3.83;;
20118;SDS011;10220;42.716;23.306;2023-05-19T09:07:45;10.63;;;3.45;;
20118;SDS011;10220;42.716;23.306;2023-05-19T09:10:15;3.38;;;3.08;;
20118;SDS011;10220;42.716;23.306;2023-05-19T09:12:57;5.03;;;3.20;;
20118;SDS011;10220;42.716;23.306;2023-05-19T09:15:31;6.35;;;3.47;;
20118;SDS011;10220;42.716;23.306;2023-05-19T09:18:12;8.25;;;3.63;;
20118;SDS011;10220;42.716;23.306;2023-05-19T09:20:42;4.97;;;3.38;;
20118;SDS011;10220;42.716;23.306;2023-05-19T09:23:18;8.13;;;3.42;;
20118;SDS011;10220;42.716;23.306;2023-05-19T09:25:54;6.05;;;3.50;;
20118;SDS011;10220;42.716;23.306;2023-05-19T09:28:30;8.02;;;3.53;;
20118;SDS011;10220;42.716;23.306;2023-05-19T09:31:09;5.15;;;3.38;;
20118;SDS011;10220;42.716;23.306;2023-05-19T09:33:38;6.20;;;3.75;;
20118;SDS011;10220;42.716;23.306;2023-05-19T09:36:10;7.32;;;3.42;;
20118;SDS011;10220;42.716;23.306;2023-05-19T09:38:39;7.55;;;3.78;;
20118;SDS011;10220;42.716;23.306;2023-05-19T09:41:07;6.15;;;3.75;;
20118;SDS011;10220;42.716;23.306;2023-05-19T09:43:33;7.22;;;3.97;;
20118;SDS011;10220;42.716;23.306;2023-05-19T09:46:07;7.35;;;5.47;;
20118;SDS011;10220;42.716;23.306;2023-05-19T09:48:35;4.72;;;3.10;;
20118;SDS011;10220;42.716;23.306;2023-05-19T09:51:01;10.30;;;3.63;;
20118;SDS011;10220;42.716;23.306;2023-05-19T09:53:32;5.28;;;3.08;;
20118;SDS011;10220;42.716;23.306;2023-05-19T09:55:59;11.70;;;3.33;;
20118;SDS011;10220;42.716;23.306;2023-05-19T09:58:29;6.15;;;3.45;;
20118;SDS011;10220;42.716;23.306;2023-05-19T10:00:55;6.63;;;3.90;;
20118;SDS011;10220;42.716;23.306;2023-05-19T10:03:22;5.30;;;3.08;;
20118;SDS011;10220;42.716;23.306;2023-05-19T10:05:49;5.93;;;4.03;;
20118;SDS011;10220;42.716;23.306;2023-05-19T10:08:17;6.85;;;3.90;;
20118;SDS011;10220;42.716;23.306;2023-05-19T10:10:44;5.85;;;3.20;;
20118;SDS011;10220;42.716;23.306;2023-05-19T10:13:16;7.82;;;4.13;;
20118;SDS011;10220;42.716;23.306;2023-05-19T10:15:42;6.82;;;5.15;;
20118;SDS011;10220;42.716;23.306;2023-05-19T10:18:08;6.35;;;4.07;;
20118;SDS011;10220;42.716;23.306;2023-05-19T10:20:34;6.43;;;3.75;;
20118;SDS011;10220;42.716;23.306;2023-05-19T10:23:01;5.95;;;3.25;;
20118;SDS011;10220;42.716;23.306;2023-05-19T10:25:27;4.45;;;3.40;;
20118;SDS011;10220;42.716;23.306;2023-05-19T10:28:00;5.45;;;3.40;;
20118;SDS011;10220;42.716;23.306;2023-05-19T10:30:32;5.00;;;3.10;;
20118;SDS011;10220;42.716;23.306;2023-05-19T10:33:01;9.35;;;4.95;;
20118;SDS011;10220;42.716;23.306;2023-05-19T10:40:36;6.47;;;3.72;;
20118;SDS011;10220;42.716;23.306;2023-05-19T10:45:52;6.13;;;3.53;;
20118;SDS011;10220;42.716;23.306;2023-05-19T10:48:19;6.85;;;3.55;;
20118;SDS011;10220;42.716;23.306;2023-05-19T10:50:46;5.70;;;3.75;;
20118;SDS011;10220;42.716;23.306;2023-05-19T10:53:15;5.55;;;3.83;;
20118;SDS011;10220;42.716;23.306;2023-05-19T10:55:50;5.90;;;3.50;;
20118;SDS011;10220;42.716;23.306;2023-05-19T11:01:19;5.85;;;3.55;;
20118;SDS011;10220;42.716;23.306;2023-05-19T11:09:00;4.85;;;3.10;;
20118;SDS011;10220;42.716;23.306;2023-05-19T11:14:09;4.13;;;2.67;;
20118;SDS011;10220;42.716;23.306;2023-05-19T11:16:38;5.85;;;2.97;;
20118;SDS011;10220;42.716;23.306;2023-05-19T11:19:15;4.80;;;3.38;;
20118;SDS011;10220;42.716;23.306;2023-05-19T11:21:50;5.85;;;3.35;;
20118;SDS011;10220;42.716;23.306;2023-05-19T11:24:34;7.38;;;4.00;;
20118;SDS011;10220;42.716;23.306;2023-05-19T11:27:29;10.05;;;3.50;;
20118;SDS011;10220;42.716;23.306;2023-05-19T11:32:32;3.90;;;3.22;;
20118;SDS011;10220;42.716;23.306;2023-05-19T11:34:59;4.32;;;3.42;;
20118;SDS011;10220;42.716;23.306;2023-05-19T11:37:25;4.45;;;3.25;;
20118;SDS011;10220;42.716;23.306;2023-05-19T11:39:54;5.65;;;3.83;;
20118;SDS011;10220;42.716;23.306;2023-05-19T11:42:20;5.32;;;2.80;;
20118;SDS011;10220;42.716;23.306;2023-05-19T11:44:53;11.95;;;3.45;;
20118;SDS011;10220;42.716;23.306;2023-05-19T11:47:19;3.42;;;2.88;;
20118;SDS011;10220;42.716;23.306;2023-05-19T11:49:49;5.32;;;3.38;;
20118;SDS011;10220;42.716;23.306;2023-05-19T11:52:16;7.80;;;3.80;;
20118;SDS011;10220;42.716;23.306;2023-05-19T11:54:46;8.40;;;3.97;;
20118;SDS011;10220;42.716;23.306;2023-05-19T11:57:12;6.15;;;3.38;;
20118;SDS011;10220;42.716;23.306;2023-05-19T11:59:41;6.13;;;3.67;;
20118;SDS011;10220;42.716;23.306;2023-05-19T12:02:22;4.97;;;3.28;;
20118;SDS011;10220;42.716;23.306;2023-05-19T12:04:50;5.00;;;2.67;;
20118;SDS011;10220;42.716;23.306;2023-05-19T12:07:19;5.60;;;3.63;;
20118;SDS011;10220;42.716;23.306;2023-05-19T12:09:49;6.07;;;3.20;;
20118;SDS011;10220;42.716;23.306;2023-05-19T12:12:33;4.57;;;3.22;;
20118;SDS011;10220;42.716;23.306;2023-05-19T12:15:02;5.72;;;3.72;;
20118;SDS011;10220;42.716;23.306;2023-05-19T12:17:31;3.63;;;2.85;;
20118;SDS011;10220;42.716;23.306;2023-05-19T12:19:56;5.25;;;2.67;;
20118;SDS011;10220;42.716;23.306;2023-05-19T12:22:25;4.78;;;2.58;;
20118;SDS011;10220;42.716;23.306;2023-05-19T12:24:54;6.13;;;2.45;;
20118;SDS011;10220;42.716;23.306;2023-05-19T12:27:22;4.05;;;3.17;;
20118;SDS011;10220;42.716;23.306;2023-05-19T12:29:50;4.45;;;2.92;;
20118;SDS011;10220;42.716;23.306;2023-05-19T12:32:27;5.03;;;3.05;;
20118;SDS011;10220;42.716;23.306;2023-05-19T12:34:55;6.18;;;3.53;;
20118;SDS011;10220;42.716;23.306;2023-05-19T12:37:21;4.95;;;3.20;;
20118;SDS011;10220;42.716;23.306;2023-05-19T12:39:50;3.58;;;2.95;;
20118;SDS011;10220;42.716;23.306;2023-05-19T12:42:22;5.85;;;3.58;;
20118;SDS011;10220;42.716;23.306;2023-05-19T12:45:00;6.47;;;3.22;;
20118;SDS011;10220;42.716;23.306;2023-05-19T12:47:37;6.57;;;3.50;;
20118;SDS011;10220;42.716;23.306;2023-05-19T12:52:29;3.08;;;2.70;;
20118;SDS011;10220;42.716;23.306;2023-05-19T12:57:48;6.90;;;3.28;;
20118;SDS011;10220;42.716;23.306;2023-05-19T13:00:16;5.10;;;3.20;;
20118;SDS011;10220;42.716;23.306;2023-05-19T13:03:19;4.43;;;2.75;;
20118;SDS011;10220;42.716;23.306;2023-05-19T13:05:41;3.10;;;2.05;;
20118;SDS011;10220;42.716;23.306;2023-05-19T13:08:11;3.42;;;2.03;;
20118;SDS011;10220;42.716;23.306;2023-05-19T13:10:39;3.17;;;1.90;;
20118;SDS011;10220;42.716;23.306;2023-05-19T13:13:06;4.13;;;2.63;;
20118;SDS011;10220;42.716;23.306;2023-05-19T13:15:36;3.97;;;2.30;;
20118;SDS011;10220;42.716;23.306;2023-05-19T13:18:05;4.47;;;2.55;;
20118;SDS011;10220;42.716;23.306;2023-05-19T13:20:37;4.88;;;2.95;;
20118;SDS011;10220;42.716;23.306;2023-05-19T13:23:14;4.10;;;2.60;;
20118;SDS011;10220;42.716;23.306;2023-05-19T13:25:40;3.95;;;2.58;;
20118;SDS011;10220;42.716;23.306;2023-05-19T13:28:06;3.17;;;2.88;;
20118;SDS011;10220;42.716;23.306;2023-05-19T13:30:44;3.03;;;2.35;;
20118;SDS011;10220;42.716;23.306;2023-05-19T13:33:09;3.40;;;2.67;;
20118;SDS011;10220;42.716;23.306;2023-05-19T13:35:38;4.65;;;3.00;;
20118;SDS011;10220;42.716;23.306;2023-05-19T13:38:07;5.18;;;2.75;;
20118;SDS011;10220;42.716;23.306;2023-05-19T13:40:36;4.97;;;2.63;;
20118;SDS011;10220;42.716;23.306;2023-05-19T13:43:02;5.00;;;2.65;;
20118;SDS011;10220;42.716;23.306;2023-05-19T13:45:31;5.10;;;2.75;;
20118;SDS011;10220;42.716;23.306;2023-05-19T13:47:57;3.05;;;2.05;;
20118;SDS011;10220;42.716;23.306;2023-05-19T13:50:26;3.25;;;2.10;;
20118;SDS011;10220;42.716;23.306;2023-05-19T13:52:54;3.47;;;2.45;;
20118;SDS011;10220;42.716;23.306;2023-05-19T13:55:20;5.93;;;2.88;;
20118;SDS011;10220;42.716;23.306;2023-05-19T13:57:50;8.05;;;3.08;;
20118;SDS011;10220;42.716;23.306;2023-05-19T14:00:18;3.88;;;2.63;;
20118;SDS011;10220;42.716;23.306;2023-05-19T14:02:50;7.28;;;2.67;;
20118;SDS011;10220;42.716;23.306;2023-05-19T14:05:16;8.98;;;3.28;;
20118;SDS011;10220;42.716;23.306;2023-05-19T14:07:45;3.75;;;2.05;;
20118;SDS011;10220;42.716;23.306;2023-05-19T14:10:11;4.80;;;3.28;;
20118;SDS011;10220;42.716;23.306;2023-05-19T14:12:36;4.72;;;2.80;;
20118;SDS011;10220;42.716;23.306;2023-05-19T14:15:05;4.72;;;2.90;;
20118;SDS011;10220;42.716;23.306;2023-05-19T14:17:31;5.13;;;2.75;;
20118;SDS011;10220;42.716;23.306;2023-05-19T14:19:57;5.60;;;3.45;;
20118;SDS011;10220;42.716;23.306;2023-05-19T14:22:26;5.13;;;3.25;;
20118;SDS011;10220;42.716;23.306;2023-05-19T14:24:51;3.72;;;2.60;;
20118;SDS011;10220;42.716;23.306;2023-05-19T14:27:17;8.50;;;2.75;;
20118;SDS011;10220;42.716;23.306;2023-05-19T14:29:42;8.82;;;3.03;;
20118;SDS011;10220;42.716;23.306;2023-05-19T14:32:10;5.78;;;3.15;;
20118;SDS011;10220;42.716;23.306;2023-05-19T14:34:35;5.07;;;2.50;;
20118;SDS011;10220;42.716;23.306;2023-05-19T14:37:01;3.53;;;2.75;;
20118;SDS011;10220;42.716;23.306;2023-05-19T14:39:28;4.07;;;2.70;;
20118;SDS011;10220;42.716;23.306;2023-05-19T14:41:55;5.05;;;2.70;;
20118;SDS011;10220;42.716;23.306;2023-05-19T14:44:20;6.45;;;3.17;;
20118;SDS011;10220;42.716;23.306;2023-05-19T14:46:46;4.18;;;3.22;;
20118;SDS011;10220;42.716;23.306;2023-05-19T14:49:14;4.05;;;3.28;;
20118;SDS011;10220;42.716;23.306;2023-05-19T14:51:40;4.68;;;2.70;;
20118;SDS011;10220;42.716;23.306;2023-05-19T14:54:05;4.65;;;2.50;;
20118;SDS011;10220;42.716;23.306;2023-05-19T14:56:31;4.55;;;2.72;;
20118;SDS011;10220;42.716;23.306;2023-05-19T14:58:56;5.32;;;2.55;;
20118;SDS011;10220;42.716;23.306;2023-05-19T15:01:21;4.90;;;3.22;;
20118;SDS011;10220;42.716;23.306;2023-05-19T15:03:47;3.28;;;2.88;;
20118;SDS011;10220;42.716;23.306;2023-05-19T15:06:12;3.53;;;2.53;;
20118;SDS011;10220;42.716;23.306;2023-05-19T15:08:38;4.78;;;3.15;;
20118;SDS011;10220;42.716;23.306;2023-05-19T15:11:05;3.55;;;2.83;;
20118;SDS011;10220;42.716;23.306;2023-05-19T15:13:30;6.20;;;2.55;;
20118;SDS011;10220;42.716;23.306;2023-05-19T15:15:55;9.05;;;2.80;;
20118;SDS011;10220;42.716;23.306;2023-05-19T15:18:21;3.45;;;2.45;;
20118;SDS011;10220;42.716;23.306;2023-05-19T15:20:46;7.03;;;2.92;;
20118;SDS011;10220;42.716;23.306;2023-05-19T15:23:12;4.30;;;3.20;;
20118;SDS011;10220;42.716;23.306;2023-05-19T15:25:37;4.30;;;3.42;;
20118;SDS011;10220;42.716;23.306;2023-05-19T15:28:03;2.97;;;2.65;;
20118;SDS011;10220;42.716;23.306;2023-05-19T15:30:28;12.43;;;4.10;;
20118;SDS011;10220;42.716;23.306;2023-05-19T15:32:54;4.00;;;2.65;;
20118;SDS011;10220;42.716;23.306;2023-05-19T15:35:20;4.55;;;2.58;;
20118;SDS011;10220;42.716;23.306;2023-05-19T15:37:45;3.58;;;1.90;;
20118;SDS011;10220;42.716;23.306;2023-05-19T15:40:10;2.47;;;1.98;;
20118;SDS011;10220;42.716;23.306;2023-05-19T15:42:36;2.70;;;2.13;;
20118;SDS011;10220;42.716;23.306;2023-05-19T15:45:02;3.65;;;1.95;;
20118;SDS011;10220;42.716;23.306;2023-05-19T15:47:29;3.45;;;2.30;;
20118;SDS011;10220;42.716;23.306;2023-05-19T15:49:54;5.10;;;2.63;;
20118;SDS011;10220;42.716;23.306;2023-05-19T15:52:20;10.88;;;5.13;;
20118;SDS011;10220;42.716;23.306;2023-05-19T15:54:47;5.82;;;2.60;;
20118;SDS011;10220;42.716;23.306;2023-05-19T15:57:13;4.07;;;2.35;;
20118;SDS011;10220;42.716;23.306;2023-05-19T15:59:38;9.25;;;3.03;;
20118;SDS011;10220;42.716;23.306;2023-05-19T16:02:03;4.63;;;2.75;;
20118;SDS011;10220;42.716;23.306;2023-05-19T16:04:29;3.75;;;2.55;;
20118;SDS011;10220;42.716;23.306;2023-05-19T16:06:55;2.72;;;2.47;;
20118;SDS011;10220;42.716;23.306;2023-05-19T16:09:20;3.13;;;2.40;;
20118;SDS011;10220;42.716;23.306;2023-05-19T16:11:45;4.07;;;2.60;;
20118;SDS011;10220;42.716;23.306;2023-05-19T16:14:11;4.20;;;2.88;;
20118;SDS011;10220;42.716;23.306;2023-05-19T16:16:36;4.15;;;2.53;;
20118;SDS011;10220;42.716;23.306;2023-05-19T16:19:02;7.70;;;3.28;;
20118;SDS011;10220;42.716;23.306;2023-05-19T16:21:27;4.03;;;2.92;;
20118;SDS011;10220;42.716;23.306;2023-05-19T16:23:52;6.28;;;2.40;;
20118;SDS011;10220;42.716;23.306;2023-05-19T16:26:18;8.35;;;5.30;;
20118;SDS011;10220;42.716;23.306;2023-05-19T16:28:43;3.47;;;2.50;;
20118;SDS011;10220;42.716;23.306;2023-05-19T16:31:09;7.10;;;3.05;;
20118;SDS011;10220;42.716;23.306;2023-05-19T16:33:34;3.20;;;2.47;;
20118;SDS011;10220;42.716;23.306;2023-05-19T16:36:00;5.15;;;3.60;;
20118;SDS011;10220;42.716;23.306;2023-05-19T16:38:25;5.65;;;4.00;;
20118;SDS011;10220;42.716;23.306;2023-05-19T16:40:51;4.95;;;2.65;;
20118;SDS011;10220;42.716;23.306;2023-05-19T16:43:16;8.43;;;2.85;;
20118;SDS011;10220;42.716;23.306;2023-05-19T16:45:41;5.65;;;3.95;;
20118;SDS011;10220;42.716;23.306;2023-05-19T16:48:07;3.47;;;2.30;;
20118;SDS011;10220;42.716;23.306;2023-05-19T16:50:32;7.85;;;3.55;;
20118;SDS011;10220;42.716;23.306;2023-05-19T16:52:58;4.20;;;3.05;;